createdAt,value
2022-10-23T00:05:01.754Z,2.20
2022-10-23T00:15:06.859Z,1.85
2022-10-23T00:25:11.665Z,2.15
2022-10-23T00:35:16.054Z,2.53
2022-10-23T00:45:22.748Z,2.40
2022-10-23T00:55:28.965Z,2.45
2022-10-23T01:05:37.148Z,1.97
2022-10-23T01:15:47.678Z,1.80
2022-10-23T01:26:09.987Z,2.03
2022-10-23T01:36:17.242Z,2.70
2022-10-23T01:46:21.019Z,2.73
2022-10-23T01:56:29.500Z,1.90
2022-10-23T02:06:32.749Z,1.60
2022-10-23T02:16:43.103Z,1.40
2022-10-23T02:26:52.171Z,1.38
2022-10-23T02:36:56.546Z,1.50
2022-10-23T02:47:10.691Z,1.47
2022-10-23T02:57:22.766Z,1.13
2022-10-23T03:07:27.585Z,1.40
2022-10-23T03:17:32.048Z,1.47
2022-10-23T03:27:35.339Z,1.63
2022-10-23T03:37:39.971Z,1.80
2022-10-23T03:47:43.437Z,1.70
2022-10-23T03:57:48.037Z,1.60
2022-10-23T04:07:51.005Z,1.67
2022-10-23T04:17:55.374Z,1.70
2022-10-23T04:27:58.352Z,1.30
2022-10-23T04:38:02.805Z,1.20
2022-10-23T04:48:05.954Z,1.03
2022-10-23T04:58:10.280Z,1.37
2022-10-23T05:08:17.130Z,1.20
2022-10-23T05:18:25.798Z,1.90
2022-10-23T05:28:28.759Z,1.90
2022-10-23T05:38:35.797Z,1.57
2022-10-23T05:48:39.048Z,2.10
2022-10-23T05:58:43.635Z,1.93
2022-10-23T06:08:46.625Z,1.53
2022-10-23T06:18:51.034Z,1.77
2022-10-23T06:28:54.026Z,1.40
2022-10-23T06:49:06.352Z,1.83
2022-10-23T06:59:10.739Z,1.50
2022-10-23T07:09:13.824Z,1.70
2022-10-23T07:19:18.196Z,1.63
2022-10-23T07:29:21.170Z,1.50
2022-10-23T07:39:25.533Z,1.60
2022-10-23T07:49:28.517Z,1.40
2022-10-23T07:59:37.180Z,1.40
2022-10-23T08:09:41.339Z,1.40
2022-10-23T08:19:47.138Z,1.20
2022-10-23T08:29:50.114Z,1.30
2022-10-23T08:39:54.856Z,1.20
2022-10-23T08:50:01.368Z,1.35
2022-10-23T09:00:09.354Z,1.45
2022-10-23T09:10:26.361Z,1.60
2022-10-23T09:20:35.146Z,1.88
2022-10-23T09:30:39.637Z,1.80
2022-10-23T09:40:45.301Z,1.60
2022-10-23T09:50:53.988Z,1.60
2022-10-23T10:00:58.487Z,1.40
2022-10-23T10:11:06.078Z,1.40
2022-10-23T10:21:18.176Z,1.50
2022-10-23T10:31:27.562Z,1.33
2022-10-23T10:41:45.965Z,1.20
2022-10-23T10:51:57.522Z,1.40
2022-10-23T11:02:13.697Z,1.58
2022-10-23T11:12:19.394Z,1.67
2022-10-23T11:22:29.080Z,1.50
2022-10-23T11:33:01.574Z,1.58
2022-10-23T11:43:06.002Z,1.00
2022-10-23T11:53:27.288Z,1.30
2022-10-23T12:03:50.521Z,1.20
2022-10-23T12:13:53.565Z,1.30
2022-10-23T12:24:39.609Z,1.38
2022-10-23T12:34:52.061Z,1.38
2022-10-23T12:45:17.588Z,1.00
2022-10-23T12:55:21.716Z,1.55
2022-10-23T13:05:27.063Z,1.30
2022-10-23T13:15:39.268Z,1.40
2022-10-23T13:25:44.523Z,1.15
2022-10-23T13:35:56.853Z,1.00
2022-10-23T13:46:02.479Z,1.00
2022-10-23T13:56:05.740Z,1.02
2022-10-23T14:06:10.215Z,1.17
2022-10-23T14:16:14.870Z,1.38
2022-10-23T14:26:21.370Z,1.42
2022-10-23T14:36:28.253Z,1.30
2022-10-23T14:46:39.137Z,1.52
2022-10-23T14:56:42.152Z,1.80
2022-10-23T15:06:47.163Z,2.17
2022-10-23T15:16:50.150Z,1.70
2022-10-23T15:26:54.531Z,2.42
2022-10-23T15:36:58.520Z,3.45
2022-10-23T15:47:03.119Z,4.57
2022-10-23T15:57:06.455Z,4.43
2022-10-23T16:07:10.808Z,3.90
2022-10-23T16:27:23.402Z,4.03
2022-10-23T16:37:26.467Z,3.30
2022-10-23T16:47:33.266Z,3.60
2022-10-23T16:57:36.321Z,4.07
2022-10-23T17:07:40.722Z,3.55
2022-10-23T17:17:44.031Z,3.90
2022-10-23T17:27:48.540Z,4.00
2022-10-23T17:37:51.645Z,4.00
2022-10-23T17:47:56.226Z,3.40
2022-10-23T17:57:59.512Z,3.35
2022-10-23T18:08:03.921Z,2.80
2022-10-23T18:18:07.855Z,2.75
2022-10-23T18:28:12.224Z,3.58
2022-10-23T18:38:15.930Z,4.15
2022-10-23T18:48:20.286Z,5.40
2022-10-23T18:58:23.336Z,5.18
2022-10-23T19:08:27.709Z,5.63
2022-10-23T19:18:30.729Z,4.88
2022-10-23T19:28:37.650Z,4.13
2022-10-23T19:38:41.483Z,3.50
2022-10-23T19:48:46.769Z,3.40
2022-10-23T19:58:50.691Z,3.10
2022-10-23T20:08:55.951Z,2.65
2022-10-23T20:18:59.115Z,1.88
2022-10-23T20:29:03.459Z,1.95
2022-10-23T20:39:08.999Z,2.50
2022-10-23T20:49:14.266Z,2.63
2022-10-23T20:59:19.283Z,2.47
2022-10-23T21:09:23.639Z,2.55
2022-10-23T21:19:26.643Z,2.92
2022-10-23T21:29:31.005Z,2.70
2022-10-23T21:39:34.266Z,3.38
2022-10-23T21:49:38.875Z,3.00
2022-10-23T21:59:41.919Z,3.40
2022-10-23T22:09:46.273Z,2.50
2022-10-23T22:19:49.281Z,3.30
2022-10-23T22:29:53.611Z,2.53
2022-10-23T22:39:56.627Z,2.92
2022-10-23T22:50:00.945Z,2.75
2022-10-23T23:00:04.656Z,3.15
2022-10-23T23:10:09.649Z,3.03
2022-10-23T23:20:12.699Z,3.13
2022-10-23T23:30:17.141Z,3.13
2022-10-23T23:40:20.233Z,2.80
2022-10-23T23:50:24.599Z,2.58
